createdAt,value
2018-11-27T00:01:40.316Z,26.33
2018-11-27T00:06:43.939Z,25.50
2018-11-27T00:11:47.994Z,22.97
2018-11-27T00:16:52.301Z,25.50
2018-11-27T00:21:56.197Z,24.70
2018-11-27T00:26:59.766Z,28.93
2018-11-27T00:32:03.954Z,22.77
2018-11-27T00:37:07.456Z,22.83
2018-11-27T00:42:10.932Z,21.43
2018-11-27T00:47:14.436Z,24.17
2018-11-27T00:52:18.769Z,24.10
2018-11-27T00:57:24.235Z,25.30
2018-11-27T01:02:28.415Z,23.07
2018-11-27T01:07:32.031Z,24.12
2018-11-27T01:12:35.520Z,24.70
2018-11-27T01:17:40.515Z,23.80
2018-11-27T01:22:44.450Z,22.80
2018-11-27T01:27:48.586Z,23.83
2018-11-27T01:32:52.323Z,22.40
2018-11-27T01:37:55.926Z,22.73
2018-11-27T01:42:59.548Z,20.43
2018-11-27T01:48:03.077Z,19.33
2018-11-27T01:53:07.285Z,24.25
2018-11-27T01:58:11.228Z,25.13
2018-11-27T02:03:15.283Z,24.40
2018-11-27T02:08:19.140Z,25.30
2018-11-27T02:13:22.828Z,23.73
2018-11-27T02:18:26.933Z,23.30
2018-11-27T02:23:30.813Z,27.83
2018-11-27T02:28:34.383Z,27.17
2018-11-27T02:33:37.967Z,24.82
2018-11-27T02:38:41.850Z,25.50
2018-11-27T02:43:45.990Z,23.43
2018-11-27T02:48:49.543Z,23.57
2018-11-27T02:53:54.833Z,31.60
2018-11-27T02:58:58.973Z,23.33
2018-11-27T03:04:02.469Z,26.48
2018-11-27T03:09:09.170Z,25.33
2018-11-27T03:14:13.748Z,23.17
2018-11-27T03:19:17.258Z,27.63
2018-11-27T03:24:20.837Z,24.00
2018-11-27T03:29:25.027Z,25.65
2018-11-27T03:34:28.504Z,20.70
2018-11-27T03:39:31.993Z,23.73
2018-11-27T03:44:36.685Z,21.93
2018-11-27T03:49:41.208Z,22.97
2018-11-27T03:54:46.373Z,24.13
2018-11-27T03:59:49.978Z,22.53
2018-11-27T04:04:53.939Z,22.57
2018-11-27T04:09:58.607Z,19.07
2018-11-27T04:15:02.739Z,20.15
2018-11-27T04:20:07.797Z,24.33
2018-11-27T04:25:12.468Z,22.53
2018-11-27T04:30:22.469Z,22.07
2018-11-27T04:35:26.613Z,21.50
2018-11-27T04:40:30.764Z,21.83
2018-11-27T04:45:34.864Z,23.90
2018-11-27T04:50:38.405Z,25.92
2018-11-27T04:55:42.204Z,25.43
2018-11-27T05:00:46.120Z,25.27
2018-11-27T05:05:50.135Z,25.93
2018-11-27T05:10:54.042Z,22.53
2018-11-27T05:15:57.675Z,24.17
2018-11-27T05:21:01.651Z,22.30
2018-11-27T05:26:05.351Z,22.63
2018-11-27T05:31:08.960Z,21.53
2018-11-27T05:36:12.465Z,27.52
2018-11-27T05:41:15.969Z,27.60
2018-11-27T05:46:19.905Z,27.33
2018-11-27T05:51:23.500Z,22.57
2018-11-27T05:56:31.416Z,25.63
2018-11-27T06:01:39.422Z,29.20
2018-11-27T06:06:48.715Z,28.73
2018-11-27T06:11:57.304Z,31.67
2018-11-27T06:17:06.955Z,24.47
2018-11-27T06:22:24.608Z,26.17
2018-11-27T06:33:39.858Z,26.87
2018-11-27T06:39:13.956Z,37.67
2018-11-27T06:50:15.170Z,30.27
2018-11-27T07:01:28.477Z,30.93
2018-11-27T07:12:37.262Z,34.17
2018-11-27T07:18:08.560Z,39.90
2018-11-27T07:23:37.173Z,38.90
2018-11-27T07:34:36.672Z,33.20
2018-11-27T07:39:55.492Z,32.57
2018-11-27T07:50:38.545Z,31.53
2018-11-27T07:55:42.047Z,40.90
2018-11-27T08:00:45.547Z,30.90
2018-11-27T08:05:49.095Z,32.13
2018-11-27T08:10:52.570Z,31.00
2018-11-27T08:15:56.036Z,30.00
2018-11-27T08:21:00.147Z,35.03
2018-11-27T08:26:04.218Z,32.37
2018-11-27T08:31:07.953Z,33.65
2018-11-27T08:36:11.467Z,34.55
2018-11-27T08:41:15.000Z,41.05
2018-11-27T08:46:18.464Z,32.80
2018-11-27T08:51:21.935Z,29.40
2018-11-27T08:56:25.800Z,32.27
2018-11-27T09:01:29.845Z,41.50
2018-11-27T09:06:34.133Z,29.20
2018-11-27T09:11:37.717Z,32.33
2018-11-27T09:16:41.311Z,32.07
2018-11-27T09:21:44.798Z,28.98
2018-11-27T09:26:48.299Z,28.73
2018-11-27T09:31:51.805Z,26.33
2018-11-27T09:36:55.370Z,32.67
2018-11-27T09:41:59.657Z,23.80
2018-11-27T09:47:04.366Z,24.63
2018-11-27T09:52:07.859Z,31.10
2018-11-27T09:57:11.376Z,36.90
2018-11-27T10:02:14.866Z,31.55
2018-11-27T10:07:18.687Z,32.47
2018-11-27T10:12:22.428Z,30.37
2018-11-27T10:17:26.323Z,31.93
2018-11-27T10:22:30.448Z,37.53
2018-11-27T10:27:33.914Z,31.23
2018-11-27T10:32:37.397Z,30.40
2018-11-27T10:37:40.852Z,37.43
2018-11-27T10:42:44.619Z,36.20
2018-11-27T10:47:49.388Z,28.77
2018-11-27T10:52:54.854Z,31.47
2018-11-27T10:57:59.470Z,33.70
2018-11-27T11:03:08.617Z,36.60
2018-11-27T11:08:13.010Z,27.17
2018-11-27T11:13:16.495Z,34.03
2018-11-27T11:18:19.957Z,28.43
2018-11-27T11:23:23.447Z,29.93
2018-11-27T11:28:28.698Z,32.23
2018-11-27T11:33:32.887Z,24.77
2018-11-27T11:38:36.441Z,24.27
2018-11-27T11:43:40.095Z,26.40
2018-11-27T11:48:43.594Z,26.47
2018-11-27T11:53:47.095Z,28.57
2018-11-27T11:58:50.635Z,27.50
2018-11-27T12:03:54.119Z,26.17
2018-11-27T12:08:57.619Z,25.63
2018-11-27T12:14:01.452Z,22.50
2018-11-27T12:19:05.535Z,22.32
2018-11-27T12:24:10.338Z,22.40
2018-11-27T12:29:14.309Z,19.92
2018-11-27T12:34:17.780Z,19.27
2018-11-27T12:39:21.235Z,22.20
2018-11-27T12:44:26.111Z,19.07
2018-11-27T12:49:30.491Z,19.60
2018-11-27T12:54:33.986Z,24.10
2018-11-27T12:59:37.577Z,24.27
2018-11-27T13:04:41.044Z,23.38
2018-11-27T13:09:44.519Z,26.57
2018-11-27T13:14:47.983Z,26.03
2018-11-27T13:19:51.730Z,23.87
2018-11-27T13:24:55.469Z,24.00
2018-11-27T13:29:59.275Z,24.23
2018-11-27T13:35:02.999Z,21.03
2018-11-27T13:40:08.060Z,24.27
2018-11-27T13:45:14.243Z,24.03
2018-11-27T13:50:18.894Z,21.53
2018-11-27T13:55:22.968Z,20.97
2018-11-27T14:00:26.759Z,20.37
2018-11-27T14:05:31.979Z,23.00
2018-11-27T14:10:35.463Z,21.77
2018-11-27T14:15:38.983Z,19.40
2018-11-27T14:20:42.435Z,22.97
2018-11-27T14:25:45.936Z,23.97
2018-11-27T14:30:50.376Z,26.30
2018-11-27T14:35:54.059Z,23.60
2018-11-27T14:40:58.062Z,27.50
2018-11-27T14:46:03.303Z,27.60
2018-11-27T14:51:06.849Z,21.57
2018-11-27T14:56:10.695Z,23.33
2018-11-27T15:01:14.492Z,19.67
2018-11-27T15:06:18.215Z,15.93
2018-11-27T15:11:21.780Z,36.23
2018-11-27T15:16:25.314Z,20.03
2018-11-27T15:21:28.829Z,19.43
2018-11-27T15:26:34.071Z,16.07
2018-11-27T15:31:38.034Z,19.10
2018-11-27T15:36:42.386Z,16.43
2018-11-27T15:41:45.876Z,23.17
2018-11-27T15:46:49.615Z,21.17
2018-11-27T15:51:53.095Z,24.47
2018-11-27T15:56:56.840Z,22.60
2018-11-27T16:02:00.655Z,24.87
2018-11-27T16:07:04.395Z,22.77
2018-11-27T16:12:08.092Z,24.73
2018-11-27T16:17:11.739Z,22.80
2018-11-27T16:22:15.498Z,20.25
2018-11-27T16:27:19.282Z,23.40
2018-11-27T16:32:23.852Z,27.60
2018-11-27T16:37:27.572Z,25.97
2018-11-27T16:42:31.130Z,24.77
2018-11-27T16:47:34.798Z,27.67
2018-11-27T16:52:38.453Z,28.37
2018-11-27T16:57:43.303Z,25.60
2018-11-27T17:02:48.278Z,25.50
2018-11-27T17:07:51.856Z,28.83
2018-11-27T17:12:57.488Z,23.20
2018-11-27T17:18:01.834Z,28.57
2018-11-27T17:23:15.597Z,25.87
2018-11-27T17:28:22.994Z,19.63
2018-11-27T17:33:40.378Z,19.87
2018-11-27T17:38:45.410Z,18.17
2018-11-27T17:43:49.533Z,19.97
2018-11-27T17:48:53.175Z,18.20
2018-11-27T17:53:57.110Z,16.37
2018-11-27T17:59:01.388Z,21.50
2018-11-27T18:04:05.488Z,18.30
2018-11-27T18:09:09.469Z,18.50
2018-11-27T18:14:13.117Z,22.77
2018-11-27T18:19:16.780Z,18.47
2018-11-27T18:24:21.333Z,20.17
2018-11-27T18:29:25.210Z,19.77
2018-11-27T18:34:28.796Z,21.27
2018-11-27T18:39:33.254Z,16.47
2018-11-27T18:44:38.143Z,15.57
2018-11-27T18:49:41.850Z,20.43
2018-11-27T18:54:45.371Z,16.67
2018-11-27T18:59:48.874Z,20.63
2018-11-27T19:04:52.379Z,17.00
2018-11-27T19:09:56.005Z,16.60
2018-11-27T19:14:59.527Z,17.30
2018-11-27T19:20:04.613Z,17.60
2018-11-27T19:25:13.540Z,21.10
2018-11-27T19:30:18.394Z,20.17
2018-11-27T19:35:25.117Z,17.37
2018-11-27T19:40:26.343Z,18.13
2018-11-27T19:45:30.239Z,18.43
2018-11-27T19:50:35.207Z,20.27
2018-11-27T19:55:39.104Z,20.60
2018-11-27T20:00:42.757Z,18.60
2018-11-27T20:05:46.455Z,22.53
2018-11-27T20:10:50.654Z,24.43
2018-11-27T20:15:54.999Z,18.07
2018-11-27T20:20:59.176Z,21.77
2018-11-27T20:26:03.384Z,18.60
2018-11-27T20:31:07.066Z,25.83
2018-11-27T20:36:10.569Z,19.73
2018-11-27T20:41:14.399Z,18.50
2018-11-27T20:46:18.318Z,18.67
2018-11-27T20:51:22.481Z,23.42
2018-11-27T20:56:26.327Z,22.47
2018-11-27T21:01:30.015Z,21.93
2018-11-27T21:14:03.689Z,19.77
2018-11-27T21:19:07.373Z,23.20
2018-11-27T21:24:12.184Z,21.20
2018-11-27T21:29:15.883Z,22.87
2018-11-27T21:34:20.524Z,22.02
2018-11-27T21:39:24.437Z,17.43
2018-11-27T21:44:28.230Z,18.17
2018-11-27T21:49:32.091Z,20.77
2018-11-27T21:54:35.628Z,17.13
2018-11-27T21:59:39.383Z,14.60
2018-11-27T22:04:43.332Z,14.53
2018-11-27T22:09:47.008Z,23.45
2018-11-27T22:14:50.839Z,21.27
2018-11-27T22:19:54.335Z,18.87
2018-11-27T22:24:58.771Z,20.57
2018-11-27T22:30:03.405Z,16.33
2018-11-27T22:35:07.633Z,16.03
2018-11-27T22:40:14.865Z,19.80
2018-11-27T22:45:19.814Z,25.53
2018-11-27T22:50:23.368Z,21.93
2018-11-27T22:55:27.242Z,23.40
2018-11-27T23:00:36.111Z,23.57
2018-11-27T23:05:40.753Z,19.77
2018-11-27T23:10:45.439Z,29.37
2018-11-27T23:15:48.975Z,35.57
2018-11-27T23:20:52.600Z,26.45
2018-11-27T23:25:56.111Z,23.97
2018-11-27T23:30:59.874Z,26.80
2018-11-27T23:36:04.343Z,26.87
2018-11-27T23:41:08.132Z,22.63
2018-11-27T23:46:11.955Z,24.32
2018-11-27T23:51:15.498Z,26.40
2018-11-27T23:56:19.049Z,25.80
